Time;durP1;ratioP1;P1;durP2;ratioP2;P2;SDS_P1;SDS_P2;PMS_P1;PMS_P2;Temp;Humidity;BMP_temperature;BMP_pressure;BME280_temperature;BME280_humidity;BME280_pressure;Samples;Min_cycle;Max_cycle;Signal;HPM_P1;HPM_P2
2023/09/28 00:00:58;;;;;;;;;;;15.40;82.80;;;;;;5068585;28;19912;-75
2023/09/28 00:03:24;;;;;;;;;;;15.40;82.90;;;;;;5068544;28;20018;-75
2023/09/28 00:05:50;;;;;;;;;;;15.50;82.90;;;;;;5067239;28;19920;-75
2023/09/28 00:08:15;;;;;;;;;;;15.50;82.80;;;;;;5068622;28;19959;-75
2023/09/28 00:10:42;;;;;;;;;;;15.50;82.70;;;;;;5068805;28;19913;-74
2023/09/28 00:13:08;;;;;;;;;;;15.50;82.80;;;;;;5067263;28;19919;-75
2023/09/28 00:15:34;;;;;;;;;;;15.50;82.70;;;;;;5067468;28;19908;-75
2023/09/28 00:17:59;;;;;;;;;;;15.50;82.70;;;;;;5068415;28;19919;-74
2023/09/28 00:20:25;;;;;;;;;;;15.50;82.60;;;;;;5068209;28;20007;-74
2023/09/28 00:22:53;;;;;;;;;;;15.40;82.50;;;;;;5068800;28;20348;-75
2023/09/28 00:25:21;;;;;;;;;;;15.30;82.50;;;;;;5068352;28;19969;-75
2023/09/28 00:27:47;;;;;;;;;;;15.20;82.60;;;;;;5068182;28;19923;-75
2023/09/28 00:30:19;;;;;;;;;;;15.10;82.70;;;;;;5068171;28;20027;-75
2023/09/28 00:32:48;;;;;;;;;;;15.00;82.70;;;;;;5068197;28;19912;-74
2023/09/28 00:35:14;;;;;;;;;;;15.00;82.90;;;;;;5068091;28;19913;-75
2023/09/28 00:37:40;;;;;;;;;;;15.00;82.90;;;;;;5068141;28;19908;-74
2023/09/28 00:40:27;;;;;;;;;;;15.00;82.90;;;;;;5067942;28;19916;-75
2023/09/28 00:42:54;;;;;;;;;;;15.10;82.90;;;;;;5068224;28;20376;-75
2023/09/28 00:45:21;;;;;;;;;;;15.00;82.90;;;;;;5068034;28;19908;-75
2023/09/28 00:47:50;;;;;;;;;;;15.10;82.90;;;;;;5066396;28;20010;-75
2023/09/28 00:50:17;;;;;;;;;;;15.00;82.90;;;;;;5067866;28;19912;-75
2023/09/28 00:52:43;;;;;;;;;;;15.10;82.80;;;;;;5067958;28;20280;-75
2023/09/28 00:55:10;;;;;;;;;;;15.00;82.70;;;;;;5049800;28;19916;-74
2023/09/28 00:57:38;;;;;;;;;;;15.00;82.80;;;;;;5067806;28;19914;-75
2023/09/28 01:00:18;;;;;;;;;;;14.90;82.80;;;;;;5067845;28;20413;-75
2023/09/28 01:02:50;;;;;;;;;;;14.90;82.80;;;;;;5066415;28;19921;-75
2023/09/28 01:05:20;;;;;;;;;;;14.90;82.90;;;;;;5067816;28;20030;-75
2023/09/28 01:07:45;;;;;;;;;;;14.90;83.00;;;;;;5067701;28;19969;-76
2023/09/28 01:10:14;;;;;;;;;;;14.90;82.90;;;;;;5067704;28;19908;-75
2023/09/28 01:12:40;;;;;;;;;;;14.90;83.00;;;;;;5067695;28;19908;-75
2023/09/28 01:15:12;;;;;;;;;;;15.00;83.10;;;;;;5067632;28;19963;-75
2023/09/28 01:17:39;;;;;;;;;;;15.00;83.00;;;;;;5067533;28;20253;-75
2023/09/28 01:20:23;;;;;;;;;;;15.10;82.90;;;;;;5067685;28;20016;-74
2023/09/28 01:22:49;;;;;;;;;;;15.20;83.00;;;;;;5067664;28;19908;-74
2023/09/28 01:25:15;;;;;;;;;;;15.20;82.80;;;;;;5066339;28;20380;-75
2023/09/28 01:27:45;;;;;;;;;;;15.30;82.80;;;;;;5067561;28;19923;-74
2023/09/28 01:30:11;;;;;;;;;;;15.30;82.60;;;;;;5067631;28;20347;-74
2023/09/28 01:32:37;;;;;;;;;;;15.20;82.40;;;;;;5066391;28;20010;-74
2023/09/28 01:35:04;;;;;;;;;;;15.10;82.40;;;;;;5067941;28;19908;-75
2023/09/28 01:37:33;;;;;;;;;;;15.00;82.60;;;;;;5067508;28;19917;-74
2023/09/28 01:39:58;;;;;;;;;;;14.90;82.70;;;;;;5066110;28;19909;-74
2023/09/28 01:42:24;;;;;;;;;;;14.90;82.70;;;;;;5067512;28;20267;-74
2023/09/28 01:44:50;;;;;;;;;;;14.90;82.60;;;;;;5066172;28;19921;-74
2023/09/28 01:47:15;;;;;;;;;;;14.80;82.60;;;;;;5067468;28;20292;-74
2023/09/28 01:49:41;;;;;;;;;;;14.80;82.70;;;;;;5066069;28;19917;-75
2023/09/28 01:52:06;;;;;;;;;;;14.80;82.80;;;;;;5067465;28;19919;-74
2023/09/28 01:54:32;;;;;;;;;;;14.70;82.70;;;;;;5067200;28;20280;-74
2023/09/28 01:56:57;;;;;;;;;;;14.80;82.70;;;;;;5066085;28;19912;-74
2023/09/28 01:59:23;;;;;;;;;;;14.70;82.60;;;;;;5067789;28;19912;-75
2023/09/28 02:01:50;;;;;;;;;;;14.70;82.50;;;;;;5070648;28;19924;-74
2023/09/28 02:04:16;;;;;;;;;;;14.70;82.60;;;;;;5069587;28;20391;-74
2023/09/28 02:06:42;;;;;;;;;;;14.70;82.50;;;;;;5070877;28;20034;-74
2023/09/28 02:09:08;;;;;;;;;;;14.70;82.60;;;;;;5070688;28;19970;-74
2023/09/28 02:11:33;;;;;;;;;;;14.70;82.60;;;;;;5070627;28;19913;-74
2023/09/28 02:13:59;;;;;;;;;;;14.80;82.80;;;;;;5069259;28;20318;-75
2023/09/28 02:16:25;;;;;;;;;;;14.80;82.70;;;;;;5069391;28;19916;-74
2023/09/28 02:18:50;;;;;;;;;;;14.90;82.60;;;;;;5069292;28;19951;-74
2023/09/28 02:21:16;;;;;;;;;;;14.90;82.50;;;;;;5070732;28;19952;-74
2023/09/28 02:23:42;;;;;;;;;;;14.80;82.50;;;;;;5070601;28;19912;-74
2023/09/28 02:26:07;;;;;;;;;;;14.80;82.40;;;;;;5069289;28;19916;-74
2023/09/28 02:28:33;;;;;;;;;;;14.70;82.40;;;;;;5070410;28;19912;-75
2023/09/28 02:31:06;;;;;;;;;;;14.60;82.40;;;;;;5070493;28;19909;-74
2023/09/28 02:33:32;;;;;;;;;;;14.60;82.60;;;;;;5069091;28;20270;-74
2023/09/28 02:35:58;;;;;;;;;;;14.60;82.70;;;;;;5052371;28;19918;-74
2023/09/28 02:38:23;;;;;;;;;;;14.60;82.70;;;;;;5068939;28;19909;-74
2023/09/28 02:40:49;;;;;;;;;;;14.60;82.60;;;;;;5070162;28;19912;-75
2023/09/28 02:43:15;;;;;;;;;;;14.70;82.70;;;;;;5070458;28;19912;-74
2023/09/28 02:45:40;;;;;;;;;;;14.70;82.70;;;;;;5069037;28;20348;-74
2023/09/28 02:48:06;;;;;;;;;;;14.80;82.70;;;;;;5068734;28;19921;-74
2023/09/28 02:50:31;;;;;;;;;;;14.80;82.60;;;;;;5070514;28;19917;-74
2023/09/28 02:52:57;;;;;;;;;;;14.90;82.60;;;;;;5070032;28;20024;-74
2023/09/28 02:55:22;;;;;;;;;;;14.90;82.50;;;;;;5070123;28;19909;-75
2023/09/28 02:57:49;;;;;;;;;;;14.90;82.40;;;;;;5051894;28;19912;-74
2023/09/28 03:02:51;;;;;;;;;;;14.80;82.30;;;;;;5069670;28;19942;-74
2023/09/28 03:05:18;;;;;;;;;;;14.80;82.40;;;;;;5069670;28;19966;-74
2023/09/28 03:07:45;;;;;;;;;;;14.70;82.50;;;;;;5069775;28;19916;-74
2023/09/28 03:10:11;;;;;;;;;;;14.70;82.50;;;;;;5068201;28;19912;-74
2023/09/28 03:12:37;;;;;;;;;;;14.70;82.50;;;;;;5069934;28;20336;-74
2023/09/28 03:15:10;;;;;;;;;;;14.70;82.50;;;;;;5068195;28;20006;-74
2023/09/28 03:17:39;;;;;;;;;;;14.70;82.50;;;;;;5068316;28;19913;-74
2023/09/28 03:20:18;;;;;;;;;;;14.70;82.50;;;;;;5069319;28;19923;-74
2023/09/28 03:22:45;;;;;;;;;;;14.70;82.40;;;;;;5068079;28;19999;-74
2023/09/28 03:25:16;;;;;;;;;;;14.70;82.40;;;;;;5069318;28;19908;-74
2023/09/28 03:27:42;;;;;;;;;;;14.60;82.30;;;;;;5069273;28;19917;-74
2023/09/28 03:30:10;;;;;;;;;;;14.60;82.40;;;;;;5068136;28;19995;-74
2023/09/28 03:32:37;;;;;;;;;;;14.50;82.40;;;;;;5069126;28;19912;-74
2023/09/28 03:35:04;;;;;;;;;;;14.60;82.60;;;;;;5069114;28;20013;-74
2023/09/28 03:37:29;;;;;;;;;;;14.60;82.70;;;;;;5067907;28;19981;-75
2023/09/28 03:39:57;;;;;;;;;;;14.60;82.60;;;;;;5069073;28;19917;-74
2023/09/28 03:42:22;;;;;;;;;;;14.60;82.60;;;;;;5068996;28;20331;-74
2023/09/28 03:44:48;;;;;;;;;;;14.70;82.60;;;;;;5067619;28;19920;-74
2023/09/28 03:47:13;;;;;;;;;;;14.70;82.60;;;;;;5068882;28;20357;-74
2023/09/28 03:49:39;;;;;;;;;;;14.80;82.60;;;;;;5068861;28;20360;-74
2023/09/28 03:52:04;;;;;;;;;;;14.80;82.50;;;;;;5068791;28;19913;-74
2023/09/28 03:54:30;;;;;;;;;;;14.80;82.40;;;;;;5068797;28;19947;-74
2023/09/28 03:56:55;;;;;;;;;;;14.80;82.40;;;;;;5067373;28;20006;-74
2023/09/28 03:59:21;;;;;;;;;;;14.80;82.50;;;;;;5068655;28;19920;-74
2023/09/28 04:01:48;;;;;;;;;;;14.90;82.50;;;;;;5067186;28;19921;-74
2023/09/28 04:04:13;;;;;;;;;;;14.90;82.40;;;;;;5068574;28;19936;-74
2023/09/28 04:06:39;;;;;;;;;;;14.90;82.40;;;;;;5068371;28;19995;-74
2023/09/28 04:09:07;;;;;;;;;;;14.90;82.40;;;;;;5067563;28;20417;-75
2023/09/28 04:11:35;;;;;;;;;;;14.80;82.30;;;;;;5067847;28;20451;-74
2023/09/28 04:14:03;;;;;;;;;;;14.80;82.30;;;;;;5068547;28;19912;-74
2023/09/28 04:16:28;;;;;;;;;;;14.70;82.30;;;;;;5067242;28;19913;-74
2023/09/28 04:18:54;;;;;;;;;;;14.70;82.40;;;;;;5050350;28;19928;-74
2023/09/28 04:21:20;;;;;;;;;;;14.70;82.40;;;;;;5068357;28;19908;-74
2023/09/28 04:23:45;;;;;;;;;;;14.70;82.40;;;;;;5067836;28;19921;-74
2023/09/28 04:26:11;;;;;;;;;;;14.60;82.90;;;;;;5067043;28;19916;-75
2023/09/28 04:28:36;;;;;;;;;;;14.60;82.40;;;;;;5068221;28;20285;-74
2023/09/28 04:31:02;;;;;;;;;;;14.60;82.40;;;;;;5068255;28;19920;-74
2023/09/28 04:33:28;;;;;;;;;;;14.60;82.40;;;;;;5066893;28;19908;-74
2023/09/28 04:35:54;;;;;;;;;;;14.50;82.40;;;;;;5067999;28;20003;-74
2023/09/28 04:38:19;;;;;;;;;;;14.50;82.40;;;;;;5068035;28;19908;-74
2023/09/28 04:40:45;;;;;;;;;;;14.50;82.40;;;;;;5068106;28;20439;-74
2023/09/28 04:43:10;;;;;;;;;;;14.50;82.50;;;;;;5068061;28;19908;-75
2023/09/28 04:45:36;;;;;;;;;;;14.50;82.40;;;;;;5066462;28;19920;-74
2023/09/28 04:48:02;;;;;;;;;;;14.40;82.40;;;;;;5066551;28;19921;-75
2023/09/28 04:50:27;;;;;;;;;;;14.40;82.40;;;;;;5067907;28;19930;-74
2023/09/28 04:52:54;;;;;;;;;;;14.30;82.40;;;;;;5067878;28;19912;-74
2023/09/28 04:55:20;;;;;;;;;;;14.20;82.40;;;;;;5067874;28;19914;-74
2023/09/28 04:57:45;;;;;;;;;;;14.20;82.40;;;;;;5067697;28;19969;-74
2023/09/28 05:00:15;;;;;;;;;;;14.10;82.40;;;;;;5066431;28;19978;-74
2023/09/28 05:02:42;;;;;;;;;;;14.10;82.40;;;;;;5067775;28;20295;-74
2023/09/28 05:05:08;;;;;;;;;;;14.10;82.40;;;;;;5067750;28;19912;-75
2023/09/28 05:07:33;;;;;;;;;;;14.00;82.40;;;;;;5067635;28;19923;-74
2023/09/28 05:09:59;;;;;;;;;;;14.00;82.40;;;;;;5067621;28;19912;-74
2023/09/28 05:12:24;;;;;;;;;;;14.00;82.50;;;;;;5067589;28;20365;-74
2023/09/28 05:14:50;;;;;;;;;;;13.90;82.40;;;;;;5066310;28;20355;-71
2023/09/28 05:17:15;;;;;;;;;;;13.90;82.40;;;;;;5067641;28;19916;-75
2023/09/28 05:19:41;;;;;;;;;;;13.90;82.40;;;;;;5067429;28;19913;-74
2023/09/28 05:22:07;;;;;;;;;;;13.80;82.40;;;;;;5067713;28;20372;-73
2023/09/28 05:24:33;;;;;;;;;;;13.80;82.40;;;;;;5067699;28;19917;-74
2023/09/28 05:26:58;;;;;;;;;;;13.80;82.40;;;;;;5067485;28;19923;-74
2023/09/28 05:29:24;;;;;;;;;;;13.80;82.40;;;;;;5067525;28;20377;-74
2023/09/28 05:31:50;;;;;;;;;;;13.80;82.40;;;;;;5066104;28;19919;-73
2023/09/28 05:34:16;;;;;;;;;;;13.80;82.30;;;;;;5067699;28;19967;-75
2023/09/28 05:36:41;;;;;;;;;;;13.80;82.30;;;;;;5071558;28;19919;-74
2023/09/28 05:39:08;;;;;;;;;;;13.80;82.30;;;;;;5069951;28;19909;-74
2023/09/28 05:41:34;;;;;;;;;;;13.80;82.30;;;;;;5071513;28;19908;-74
2023/09/28 05:43:59;;;;;;;;;;;13.80;82.30;;;;;;5053299;28;19913;-74
2023/09/28 05:46:25;;;;;;;;;;;13.80;82.30;;;;;;5071367;28;19920;-74
2023/09/28 05:48:51;;;;;;;;;;;13.80;82.30;;;;;;5071366;28;19927;-74
2023/09/28 05:51:17;;;;;;;;;;;13.80;82.30;;;;;;5071132;28;19917;-74
2023/09/28 05:53:43;;;;;;;;;;;13.80;82.30;;;;;;5069940;28;19944;-74
2023/09/28 05:56:08;;;;;;;;;;;13.70;82.20;;;;;;5069855;28;20380;-73
2023/09/28 05:58:34;;;;;;;;;;;13.80;82.30;;;;;;5070748;28;19917;-74
2023/09/28 06:01:06;;;;;;;;;;;13.80;82.30;;;;;;5069301;28;19912;-74
2023/09/28 06:03:31;;;;;;;;;;;13.70;82.20;;;;;;5070614;28;20332;-75
2023/09/28 06:05:57;;;;;;;;;;;13.70;82.20;;;;;;5070707;28;19912;-73
2023/09/28 06:08:22;;;;;;;;;;;13.80;82.20;;;;;;5069217;28;19962;-74
2023/09/28 06:10:48;;;;;;;;;;;13.80;82.20;;;;;;5070756;28;19920;-74
2023/09/28 06:13:14;;;;;;;;;;;13.80;82.20;;;;;;5070753;28;20071;-75
2023/09/28 06:15:39;;;;;;;;;;;13.80;82.20;;;;;;5069302;28;19948;-74
2023/09/28 06:18:05;;;;;;;;;;;13.80;82.20;;;;;;5070291;28;19920;-74
2023/09/28 06:20:31;;;;;;;;;;;13.80;82.20;;;;;;5069208;28;19912;-74
2023/09/28 06:22:56;;;;;;;;;;;13.80;82.20;;;;;;5070467;28;19952;-75
2023/09/28 06:25:22;;;;;;;;;;;13.80;82.20;;;;;;5069004;28;20376;-74
2023/09/28 06:27:47;;;;;;;;;;;13.80;82.20;;;;;;5069039;28;19916;-74
2023/09/28 06:30:13;;;;;;;;;;;13.80;82.30;;;;;;5069860;28;20353;-73
2023/09/28 06:32:39;;;;;;;;;;;13.80;82.20;;;;;;5070319;28;19909;-74
2023/09/28 06:35:04;;;;;;;;;;;13.80;82.20;;;;;;5070074;28;19938;-74
2023/09/28 06:37:30;;;;;;;;;;;13.80;82.30;;;;;;5068515;28;20396;-74
2023/09/28 06:39:56;;;;;;;;;;;13.80;82.20;;;;;;5068307;28;20309;-74
2023/09/28 06:42:22;;;;;;;;;;;13.80;82.20;;;;;;5069696;28;19913;-74
2023/09/28 06:44:47;;;;;;;;;;;13.80;82.20;;;;;;5069600;28;19918;-74
2023/09/28 06:47:13;;;;;;;;;;;13.80;82.20;;;;;;5067847;28;19972;-74
2023/09/28 06:49:38;;;;;;;;;;;13.80;82.20;;;;;;5067962;28;19931;-74
2023/09/28 06:52:04;;;;;;;;;;;13.80;82.20;;;;;;5067522;28;19912;-74
2023/09/28 06:54:31;;;;;;;;;;;13.80;82.20;;;;;;5069552;28;20426;-76
2023/09/28 06:56:57;;;;;;;;;;;13.90;82.30;;;;;;5069689;28;19917;-77
2023/09/28 06:59:22;;;;;;;;;;;13.90;82.30;;;;;;5068231;28;19969;-74
2023/09/28 07:01:48;;;;;;;;;;;13.90;82.30;;;;;;5069094;28;20007;-74
2023/09/28 07:04:13;;;;;;;;;;;13.90;82.30;;;;;;5051142;28;20019;-73
2023/09/28 07:06:39;;;;;;;;;;;13.90;82.20;;;;;;5068507;28;19916;-74
2023/09/28 07:09:05;;;;;;;;;;;13.90;82.20;;;;;;5067350;28;20402;-74
2023/09/28 07:11:31;;;;;;;;;;;13.90;82.20;;;;;;5068822;28;20010;-74
2023/09/28 07:13:56;;;;;;;;;;;14.00;82.20;;;;;;5068612;28;20007;-74
2023/09/28 07:16:22;;;;;;;;;;;14.00;82.20;;;;;;5069510;28;19923;-75
2023/09/28 07:18:49;;;;;;;;;;;14.00;82.20;;;;;;5066439;28;19943;-75
2023/09/28 07:21:14;;;;;;;;;;;14.10;82.20;;;;;;5068068;28;20316;-74
2023/09/28 07:23:41;;;;;;;;;;;14.10;82.20;;;;;;5068778;28;19913;-74
2023/09/28 07:26:16;;;;;;;;;;;14.10;82.20;;;;;;5068414;28;19912;-74
2023/09/28 07:28:45;;;;;;;;;;;14.10;82.20;;;;;;5068026;28;19967;-75
2023/09/28 07:31:11;;;;;;;;;;;14.20;82.20;;;;;;5068061;28;19909;-75
2023/09/28 07:33:37;;;;;;;;;;;14.20;82.20;;;;;;5066583;28;20007;-75
2023/09/28 07:36:05;;;;;;;;;;;14.20;82.20;;;;;;5068115;28;19958;-74
2023/09/28 07:38:34;;;;;;;;;;;14.20;82.20;;;;;;5067816;28;19912;-73
2023/09/28 07:41:00;;;;;;;;;;;14.30;82.30;;;;;;5066899;28;20250;-76
2023/09/28 07:43:26;;;;;;;;;;;14.30;82.70;;;;;;5067749;28;19916;-69
2023/09/28 07:45:52;;;;;;;;;;;14.40;82.30;;;;;;5067690;28;19913;-75
2023/09/28 07:48:17;;;;;;;;;;;14.40;82.30;;;;;;5067829;28;19931;-74
2023/09/28 07:50:43;;;;;;;;;;;14.50;82.30;;;;;;5068165;28;20360;-76
2023/09/28 07:53:08;;;;;;;;;;;14.50;82.20;;;;;;5066386;28;19960;-75
2023/09/28 07:55:34;;;;;;;;;;;14.50;82.20;;;;;;5067901;28;19923;-75
2023/09/28 07:58:00;;;;;;;;;;;14.60;82.30;;;;;;5067408;28;19909;-73
2023/09/28 08:00:27;;;;;;;;;;;14.60;82.30;;;;;;5067450;28;19921;-72
2023/09/28 08:02:52;;;;;;;;;;;14.60;82.20;;;;;;5068732;28;20415;-75
2023/09/28 08:05:18;;;;;;;;;;;14.70;82.30;;;;;;5068681;28;20059;-74
2023/09/28 08:07:44;;;;;;;;;;;14.70;82.20;;;;;;5067567;28;19916;-74
2023/09/28 08:10:09;;;;;;;;;;;14.80;82.30;;;;;;5068457;28;20003;-74
2023/09/28 08:12:36;;;;;;;;;;;14.80;82.20;;;;;;5063522;28;19995;-74
2023/09/28 08:15:03;;;;;;;;;;;14.80;82.20;;;;;;5066924;28;20388;-73
2023/09/28 08:17:29;;;;;;;;;;;14.80;82.10;;;;;;5066974;28;19924;-73
2023/09/28 08:19:56;;;;;;;;;;;14.80;82.20;;;;;;5068789;28;19917;-74
2023/09/28 08:22:22;;;;;;;;;;;14.80;82.20;;;;;;5067797;28;20007;-73
2023/09/28 08:24:48;;;;;;;;;;;14.90;82.30;;;;;;5066393;28;19980;-73
2023/09/28 08:27:14;;;;;;;;;;;14.90;82.30;;;;;;5064958;28;19921;-73
2023/09/28 08:29:39;;;;;;;;;;;14.90;82.30;;;;;;5066716;28;19916;-73
2023/09/28 08:32:05;;;;;;;;;;;14.90;82.30;;;;;;5066188;28;20295;-73
2023/09/28 08:34:33;;;;;;;;;;;15.00;82.40;;;;;;5066794;28;19916;-73
2023/09/28 08:36:58;;;;;;;;;;;15.00;82.30;;;;;;5066872;28;19909;-74
2023/09/28 08:39:24;;;;;;;;;;;15.00;82.40;;;;;;5067812;28;19927;-73
2023/09/28 08:41:59;;;;;;;;;;;15.00;82.40;;;;;;5067720;28;20400;-73
2023/09/28 08:44:26;;;;;;;;;;;15.10;82.40;;;;;;5068300;28;19994;-73
2023/09/28 08:46:57;;;;;;;;;;;15.10;82.30;;;;;;5066867;28;20480;-73
2023/09/28 08:49:25;;;;;;;;;;;15.10;82.30;;;;;;5067741;28;20008;-73
2023/09/28 08:51:52;;;;;;;;;;;15.10;82.30;;;;;;5068380;28;19908;-72
2023/09/28 08:54:18;;;;;;;;;;;15.10;82.30;;;;;;5068087;28;20246;-73
2023/09/28 08:56:46;;;;;;;;;;;15.10;82.40;;;;;;5066936;28;19930;-72
2023/09/28 08:59:12;;;;;;;;;;;15.20;82.40;;;;;;5066915;28;19916;-72
2023/09/28 09:01:37;;;;;;;;;;;15.20;82.50;;;;;;5066513;28;20495;-73
2023/09/28 09:04:03;;;;;;;;;;;15.30;82.60;;;;;;5066895;28;20011;-74
2023/09/28 09:06:29;;;;;;;;;;;15.40;82.60;;;;;;5066100;28;19923;-73
2023/09/28 09:09:00;;;;;;;;;;;15.60;82.60;;;;;;5067306;28;20037;-74
2023/09/28 09:11:30;;;;;;;;;;;15.70;82.50;;;;;;5074582;28;19931;-74
2023/09/28 09:13:55;;;;;;;;;;;15.80;82.60;;;;;;5074418;28;19912;-74
2023/09/28 09:16:27;;;;;;;;;;;16.00;82.70;;;;;;5074778;28;19917;-74
2023/09/28 09:18:54;;;;;;;;;;;16.20;82.70;;;;;;5069452;28;20490;-73
2023/09/28 09:21:21;;;;;;;;;;;16.40;83.10;;;;;;5066398;28;19969;-73
2023/09/28 09:24:06;;;;;;;;;;;16.50;82.40;;;;;;5073530;28;20411;-73
2023/09/28 09:26:37;;;;;;;;;;;16.60;82.30;;;;;;5054611;28;19940;-73
2023/09/28 09:29:03;;;;;;;;;;;16.70;82.30;;;;;;5058159;28;19973;-74
2023/09/28 09:31:30;;;;;;;;;;;16.90;82.80;;;;;;5060576;28;19975;-74
2023/09/28 09:33:56;;;;;;;;;;;17.20;83.00;;;;;;5070101;28;20308;-73
2023/09/28 09:36:22;;;;;;;;;;;17.40;82.50;;;;;;5053366;28;19935;-73
2023/09/28 09:38:50;;;;;;;;;;;17.50;82.20;;;;;;5056392;28;20272;-74
2023/09/28 09:41:16;;;;;;;;;;;17.40;82.10;;;;;;5065408;28;20379;-74
2023/09/28 09:43:41;;;;;;;;;;;17.30;82.10;;;;;;5057219;28;19997;-74
2023/09/28 09:46:09;;;;;;;;;;;17.20;82.20;;;;;;5059849;28;19912;-74
2023/09/28 09:48:38;;;;;;;;;;;17.10;82.30;;;;;;5054835;28;19916;-74
2023/09/28 09:51:07;;;;;;;;;;;17.10;82.50;;;;;;5054185;28;19909;-73
2023/09/28 09:53:34;;;;;;;;;;;17.20;82.60;;;;;;5070494;28;19951;-72
2023/09/28 09:56:01;;;;;;;;;;;17.20;82.60;;;;;;5073485;28;20362;-75
2023/09/28 09:58:33;;;;;;;;;;;17.30;82.50;;;;;;5072900;28;20413;-76
2023/09/28 10:01:00;;;;;;;;;;;17.30;82.80;;;;;;5062180;28;20318;-74
2023/09/28 10:03:26;;;;;;;;;;;17.50;83.00;;;;;;5054440;28;19931;-72
2023/09/28 10:05:53;;;;;;;;;;;17.60;82.60;;;;;;5054651;28;19913;-72
2023/09/28 10:08:20;;;;;;;;;;;17.60;82.30;;;;;;5060631;28;19920;-73
2023/09/28 10:10:46;;;;;;;;;;;17.50;82.20;;;;;;5068536;28;19925;-73
2023/09/28 10:13:13;;;;;;;;;;;17.50;82.60;;;;;;5072686;28;19951;-73
2023/09/28 10:15:39;;;;;;;;;;;17.60;82.90;;;;;;5074302;28;19913;-73
2023/09/28 10:18:05;;;;;;;;;;;17.70;82.90;;;;;;5072670;28;19916;-74
2023/09/28 10:20:31;;;;;;;;;;;17.90;83.00;;;;;;5070433;28;19920;-74
2023/09/28 10:22:56;;;;;;;;;;;18.10;83.10;;;;;;5070815;28;20298;-75
2023/09/28 10:25:23;;;;;;;;;;;18.50;83.50;;;;;;5070818;28;19913;-75
2023/09/28 10:27:48;;;;;;;;;;;18.90;83.50;;;;;;5071059;28;19921;-73
2023/09/28 10:30:20;;;;;;;;;;;19.20;83.00;;;;;;5065479;28;19924;-76
2023/09/28 10:32:46;;;;;;;;;;;19.20;82.20;;;;;;5068833;28;19917;-75
2023/09/28 10:35:23;;;;;;;;;;;19.00;81.90;;;;;;5071371;28;20049;-75
2023/09/28 10:38:07;;;;;;;;;;;18.70;81.80;;;;;;5066855;28;20288;-76
2023/09/28 10:40:33;;;;;;;;;;;18.50;82.00;;;;;;5068121;28;19920;-76
2023/09/28 10:43:13;;;;;;;;;;;18.20;82.00;;;;;;5069938;28;19908;-75
2023/09/28 10:45:39;;;;;;;;;;;17.90;82.30;;;;;;5050924;28;19955;-73
2023/09/28 10:48:05;;;;;;;;;;;17.70;82.40;;;;;;5068468;28;20312;-76
2023/09/28 10:50:31;;;;;;;;;;;17.60;82.50;;;;;;5068823;28;19920;-75
2023/09/28 10:52:56;;;;;;;;;;;17.40;82.60;;;;;;5068975;28;19989;-74
2023/09/28 10:55:22;;;;;;;;;;;17.30;82.70;;;;;;5069574;28;20046;-74
2023/09/28 10:57:48;;;;;;;;;;;17.30;82.90;;;;;;5052606;28;20004;-74
2023/09/28 11:00:13;;;;;;;;;;;17.40;82.90;;;;;;5069858;28;20356;-75
2023/09/28 11:02:40;;;;;;;;;;;17.40;82.80;;;;;;5067823;28;19947;-75
2023/09/28 11:05:08;;;;;;;;;;;17.30;82.60;;;;;;5069241;28;19921;-75
2023/09/28 11:07:35;;;;;;;;;;;17.30;82.70;;;;;;5069380;28;19912;-74
2023/09/28 11:10:00;;;;;;;;;;;17.20;82.70;;;;;;5069689;28;19913;-74
2023/09/28 11:12:28;;;;;;;;;;;17.10;82.70;;;;;;5070087;28;19931;-75
2023/09/28 11:14:55;;;;;;;;;;;17.10;82.70;;;;;;5069972;28;20299;-74
2023/09/28 11:17:21;;;;;;;;;;;17.00;82.70;;;;;;5070080;28;20009;-74
2023/09/28 11:19:48;;;;;;;;;;;17.00;82.80;;;;;;5070407;28;19995;-73
2023/09/28 11:22:15;;;;;;;;;;;17.10;82.90;;;;;;5069968;28;19912;-74
2023/09/28 11:24:41;;;;;;;;;;;17.10;82.80;;;;;;5068425;28;19963;-73
2023/09/28 11:27:07;;;;;;;;;;;17.10;82.80;;;;;;5069811;28;19916;-74
2023/09/28 11:29:32;;;;;;;;;;;17.10;82.70;;;;;;5069478;28;20405;-74
2023/09/28 11:31:58;;;;;;;;;;;17.10;82.70;;;;;;5068705;28;19932;-74
2023/09/28 11:34:30;;;;;;;;;;;17.10;82.70;;;;;;5068712;28;20341;-73
2023/09/28 11:36:57;;;;;;;;;;;17.10;82.70;;;;;;5068701;28;20280;-73
2023/09/28 11:39:24;;;;;;;;;;;17.10;82.70;;;;;;5069342;28;19909;-73
2023/09/28 11:41:56;;;;;;;;;;;17.20;82.80;;;;;;5068441;28;19953;-74
2023/09/28 11:44:23;;;;;;;;;;;17.20;82.80;;;;;;5069707;28;19940;-73
2023/09/28 11:46:50;;;;;;;;;;;17.20;82.80;;;;;;5069944;28;20630;-73
2023/09/28 11:49:16;;;;;;;;;;;17.30;82.70;;;;;;5069629;28;19969;-75
2023/09/28 11:51:43;;;;;;;;;;;17.30;82.60;;;;;;5068356;28;19913;-75
2023/09/28 11:54:11;;;;;;;;;;;17.30;82.60;;;;;;5069435;28;19908;-75
2023/09/28 11:56:39;;;;;;;;;;;17.30;82.60;;;;;;5069335;28;19944;-73
2023/09/28 11:59:06;;;;;;;;;;;17.30;82.60;;;;;;5069433;28;20352;-74
2023/09/28 12:01:31;;;;;;;;;;;17.30;82.60;;;;;;5068725;28;19909;-76
2023/09/28 12:03:57;;;;;;;;;;;17.30;82.50;;;;;;5069054;28;19919;-75
2023/09/28 12:06:23;;;;;;;;;;;17.30;82.60;;;;;;5067842;28;19909;-74
2023/09/28 12:08:49;;;;;;;;;;;17.30;82.60;;;;;;5067682;28;20529;-76
2023/09/28 12:11:14;;;;;;;;;;;17.30;82.50;;;;;;5069244;28;19908;-77
2023/09/28 12:13:40;;;;;;;;;;;17.20;82.60;;;;;;5068661;28;20015;-76
2023/09/28 12:16:06;;;;;;;;;;;17.20;82.60;;;;;;5068604;28;20384;-76
2023/09/28 12:18:32;;;;;;;;;;;17.20;82.70;;;;;;5068390;28;20395;-76
2023/09/28 12:20:58;;;;;;;;;;;17.20;82.60;;;;;;5068718;28;20012;-76
2023/09/28 12:23:25;;;;;;;;;;;17.20;82.60;;;;;;5065396;28;19912;-76
2023/09/28 12:25:54;;;;;;;;;;;17.20;82.60;;;;;;5065669;28;19931;-77
2023/09/28 12:28:22;;;;;;;;;;;17.20;82.60;;;;;;5068822;28;19912;-77
2023/09/28 12:30:48;;;;;;;;;;;17.20;82.60;;;;;;5066663;28;19912;-72
2023/09/28 12:33:13;;;;;;;;;;;17.20;82.60;;;;;;5067283;28;19970;-73
2023/09/28 12:35:39;;;;;;;;;;;17.20;82.60;;;;;;5064037;28;19908;-73
2023/09/28 12:38:07;;;;;;;;;;;17.20;82.60;;;;;;5068138;28;19924;-76
2023/09/28 12:40:33;;;;;;;;;;;17.20;82.60;;;;;;5069232;28;20368;-73
2023/09/28 12:43:04;;;;;;;;;;;17.20;82.70;;;;;;5058090;28;19959;-75
2023/09/28 12:45:35;;;;;;;;;;;17.20;83.10;;;;;;5050300;28;19948;-75
2023/09/28 12:48:05;;;;;;;;;;;17.30;82.70;;;;;;5065922;28;20464;-75
2023/09/28 12:50:31;;;;;;;;;;;17.30;82.70;;;;;;5065675;28;19930;-74
2023/09/28 12:52:57;;;;;;;;;;;17.30;82.60;;;;;;5066605;28;20325;-74
2023/09/28 12:55:23;;;;;;;;;;;17.30;82.50;;;;;;5068321;28;19991;-75
2023/09/28 12:57:50;;;;;;;;;;;17.40;82.60;;;;;;5068323;28;19913;-75
2023/09/28 13:00:17;;;;;;;;;;;17.40;82.60;;;;;;5054401;28;19916;-76
2023/09/28 13:02:44;;;;;;;;;;;17.40;82.60;;;;;;5048204;28;19967;-76
2023/09/28 13:05:09;;;;;;;;;;;17.50;82.80;;;;;;5048235;28;19916;-75
2023/09/28 13:07:35;;;;;;;;;;;17.50;82.80;;;;;;5048003;28;19928;-76
2023/09/28 13:10:04;;;;;;;;;;;17.60;82.80;;;;;;5048318;28;19916;-76
2023/09/28 13:12:30;;;;;;;;;;;17.70;82.60;;;;;;5050767;28;19948;-76
2023/09/28 13:14:55;;;;;;;;;;;17.70;82.60;;;;;;5068046;28;19944;-76
2023/09/28 13:17:21;;;;;;;;;;;17.70;82.60;;;;;;5068161;28;20267;-75
2023/09/28 13:19:48;;;;;;;;;;;17.70;82.70;;;;;;5068033;28;19931;-76
2023/09/28 13:22:13;;;;;;;;;;;17.60;82.60;;;;;;5067960;28;20261;-75
2023/09/28 13:24:39;;;;;;;;;;;17.70;82.70;;;;;;5066411;28;19917;-76
2023/09/28 13:27:05;;;;;;;;;;;17.70;82.70;;;;;;5067618;28;19917;-74
2023/09/28 13:29:31;;;;;;;;;;;17.80;82.90;;;;;;5066478;28;20434;-74
2023/09/28 13:31:57;;;;;;;;;;;18.00;83.00;;;;;;5067399;28;20348;-76
2023/09/28 13:34:22;;;;;;;;;;;18.20;82.90;;;;;;5066504;28;19936;-75
2023/09/28 13:36:48;;;;;;;;;;;18.40;82.70;;;;;;5067886;28;19912;-75
2023/09/28 13:39:47;;;;;;;;;;;18.40;82.40;;;;;;5068703;28;19982;-75
2023/09/28 13:42:06;;;;;;;;;;;18.50;82.50;;;;;;5066722;28;19938;-72
2023/09/28 13:44:32;;;;;;;;;;;18.50;82.50;;;;;;5068466;28;19913;-73
2023/09/28 13:47:00;;;;;;;;;;;18.60;82.50;;;;;;5068470;28;20577;-74
2023/09/28 13:49:28;;;;;;;;;;;18.60;82.40;;;;;;5067334;28;20030;-75
2023/09/28 13:51:58;;;;;;;;;;;18.50;82.30;;;;;;5068374;28;19947;-76
2023/09/28 13:54:27;;;;;;;;;;;18.50;82.30;;;;;;5067301;28;19909;-75
2023/09/28 13:57:04;;;;;;;;;;;18.50;82.30;;;;;;5070782;28;20412;-74
2023/09/28 13:59:31;;;;;;;;;;;18.50;82.40;;;;;;5055285;28;20271;-72
2023/09/28 14:01:57;;;;;;;;;;;18.40;82.40;;;;;;5071714;28;19936;-75
2023/09/28 14:04:23;;;;;;;;;;;18.40;82.40;;;;;;5071650;28;19920;-73
2023/09/28 14:06:49;;;;;;;;;;;18.40;82.50;;;;;;5071799;28;19917;-76
2023/09/28 14:09:18;;;;;;;;;;;18.40;82.50;;;;;;5071703;28;20046;-76
2023/09/28 14:11:45;;;;;;;;;;;18.30;82.50;;;;;;5071369;28;19999;-77
2023/09/28 14:14:14;;;;;;;;;;;18.30;82.50;;;;;;5070012;28;19912;-68
2023/09/28 14:16:40;;;;;;;;;;;18.20;82.50;;;;;;5070860;28;19912;-78